Loganville, Pennsylvania
Current Conditions -  °F | °C
As of 9:53 PM on Friday 28 Nov 2014 (Local Time) from KTHV Reporting Station
Few Clouds Few Clouds  
Wind Chill: 22°   Ceiling: Unl
Heat Index: 22°   Visibility: 10mi
Dew Point: 14°   Wind: 0mph
Humidity: 72%   Direction: NA
Pressure: 30.27"   Gusts: NA
Location:  39.86°N, 76.71°W
Report Text: KTHV 290253Z AUTO 00000KT 10SM FEW120 M06/M10 A3027 RMK AO2 SLP258 T10561100 55001
Loading
Personal Weather Stations






























Interactive Weather Map New forecast layout! Learn more

10-Day Weather Forecast

Advertisements
Track Severe Weather on mobile